createdAt,value
2022-11-02T00:00:41.104Z,100946.91
2022-11-02T00:03:08.104Z,100945.31
2022-11-02T00:05:35.084Z,100949.00
2022-11-02T00:08:01.375Z,100939.81
2022-11-02T00:10:30.202Z,100933.41
2022-11-02T00:12:58.393Z,100941.47
2022-11-02T00:15:27.030Z,100952.75
2022-11-02T00:17:55.928Z,100940.72
2022-11-02T00:20:22.483Z,100932.69
2022-11-02T00:22:52.039Z,100926.69
2022-11-02T00:25:20.180Z,100925.50
2022-11-02T00:27:46.647Z,100919.47
2022-11-02T00:30:13.044Z,100914.28
2022-11-02T00:32:39.385Z,100919.13
2022-11-02T00:35:06.075Z,100920.78
2022-11-02T00:39:59.624Z,100899.88
2022-11-02T00:42:26.065Z,100901.13
2022-11-02T00:44:52.290Z,100906.38
2022-11-02T00:47:18.541Z,100900.78
2022-11-02T00:49:45.004Z,100914.88
2022-11-02T00:52:11.458Z,100909.66
2022-11-02T00:54:37.693Z,100914.53
2022-11-02T00:57:04.014Z,100912.13
2022-11-02T00:59:30.472Z,100916.19
2022-11-02T01:01:57.046Z,100910.56
2022-11-02T01:04:23.387Z,100911.78
2022-11-02T01:06:49.815Z,100900.50
2022-11-02T01:09:16.333Z,100910.97
2022-11-02T01:11:43.165Z,100918.19
2022-11-02T01:14:09.872Z,100922.59
2022-11-02T01:16:36.381Z,100908.91
2022-11-02T01:19:02.887Z,100915.28
2022-11-02T01:21:29.296Z,100898.81
2022-11-02T01:26:21.875Z,100914.44
2022-11-02T01:28:48.303Z,100910.41
2022-11-02T01:31:14.583Z,100911.63
2022-11-02T01:33:45.587Z,100905.19
2022-11-02T01:36:13.015Z,100910.41
2022-11-02T01:38:39.416Z,100905.19
2022-11-02T01:41:05.949Z,100919.25
2022-11-02T01:43:33.616Z,100905.19
2022-11-02T01:46:01.705Z,100912.00
2022-11-02T01:48:33.623Z,100902.75
2022-11-02T01:51:02.059Z,100903.13
2022-11-02T01:53:29.326Z,100894.66
2022-11-02T01:55:56.464Z,100892.63
2022-11-02T01:58:22.788Z,100905.03
2022-11-02T02:00:49.313Z,100905.41
2022-11-02T02:03:17.649Z,100902.53
2022-11-02T02:06:04.224Z,100901.28
2022-11-02T02:08:32.022Z,100899.63
2022-11-02T02:10:58.811Z,100898.28
2022-11-02T02:13:28.029Z,100903.47
2022-11-02T02:16:01.841Z,100904.22
2022-11-02T02:18:39.656Z,100914.63
2022-11-02T02:21:13.063Z,100917.41
2022-11-02T02:24:05.772Z,100908.91
2022-11-02T02:26:35.206Z,100910.50
2022-11-02T02:29:05.325Z,100903.63
2022-11-02T02:31:44.752Z,100901.56
2022-11-02T02:34:27.426Z,100906.03
2022-11-02T02:37:03.869Z,100897.19
2022-11-02T02:39:41.037Z,100896.00
2022-11-02T02:42:16.314Z,100900.47
2022-11-02T02:44:47.720Z,100889.28
2022-11-02T02:47:16.977Z,100891.34
2022-11-02T02:49:52.535Z,100890.94
2022-11-02T02:52:20.322Z,100898.59
2022-11-02T02:54:47.590Z,100894.97
2022-11-02T02:57:16.630Z,100903.41
2022-11-02T02:59:45.551Z,100903.41
2022-11-02T03:02:18.071Z,100904.22
2022-11-02T03:04:44.552Z,100902.59
2022-11-02T03:07:14.092Z,100905.41
2022-11-02T03:09:42.626Z,100902.19
2022-11-02T03:12:17.865Z,100905.41
2022-11-02T03:14:50.277Z,100910.19
2022-11-02T03:17:24.892Z,100905.75
2022-11-02T03:20:05.578Z,100904.16
2022-11-02T03:22:34.747Z,100901.72
2022-11-02T03:25:12.623Z,100899.28
2022-11-02T03:27:49.189Z,100905.69
2022-11-02T03:30:18.425Z,100900.44
2022-11-02T03:33:03.701Z,100904.84
2022-11-02T03:35:32.901Z,100900.78
2022-11-02T03:38:03.453Z,100913.22
2022-11-02T03:40:33.167Z,100914.41
2022-11-02T03:43:00.417Z,100924.47
2022-11-02T03:45:29.886Z,100920.44
2022-11-02T03:48:02.045Z,100920.44
2022-11-02T03:50:29.545Z,100931.22
2022-11-02T03:53:07.292Z,100931.22
2022-11-02T03:55:36.591Z,100940.44
2022-11-02T03:58:03.550Z,100944.41
2022-11-02T04:00:32.521Z,100940.81
2022-11-02T04:03:00.197Z,100947.63
2022-11-02T04:05:31.300Z,100943.19
2022-11-02T04:08:16.347Z,100939.56
2022-11-02T04:11:02.608Z,100951.63
2022-11-02T04:13:47.801Z,100944.41
2022-11-02T04:16:15.266Z,100947.22
2022-11-02T04:19:00.894Z,100950.00
2022-11-02T04:21:27.607Z,100959.25
2022-11-02T04:24:12.600Z,100959.25
2022-11-02T04:26:39.855Z,100973.31
2022-11-02T04:29:06.644Z,100973.66
2022-11-02T04:31:33.087Z,100972.50
2022-11-02T04:34:02.307Z,100976.47
2022-11-02T04:36:29.238Z,100972.44
2022-11-02T04:38:55.810Z,100976.88
2022-11-02T04:41:42.070Z,100979.25
2022-11-02T04:44:13.250Z,100979.25
2022-11-02T04:46:40.782Z,100978.44
2022-11-02T04:49:07.419Z,100987.25
2022-11-02T04:51:34.516Z,100988.44
2022-11-02T04:54:00.987Z,100986.44
2022-11-02T04:56:28.058Z,100996.06
2022-11-02T04:58:55.762Z,100993.63
2022-11-02T05:01:22.627Z,100994.81
2022-11-02T05:03:49.889Z,100992.38
2022-11-02T05:06:20.253Z,100986.34
2022-11-02T05:08:46.766Z,100988.72
2022-11-02T05:11:13.141Z,100993.09
2022-11-02T05:13:40.371Z,100991.09
2022-11-02T05:16:07.036Z,101000.72
2022-11-02T05:18:34.041Z,101001.47
2022-11-02T05:21:00.847Z,100995.84
2022-11-02T05:23:28.725Z,101007.09
2022-11-02T05:26:05.188Z,101011.91
2022-11-02T05:28:34.372Z,101001.84
2022-11-02T05:31:01.737Z,101014.72
2022-11-02T05:33:30.787Z,101013.91
2022-11-02T05:35:58.210Z,101011.09
2022-11-02T05:38:24.683Z,101017.53
2022-11-02T05:40:51.893Z,101016.31
2022-11-02T05:43:18.143Z,101033.19
2022-11-02T05:45:44.350Z,101033.19
2022-11-02T05:48:10.794Z,101032.78
2022-11-02T05:50:37.014Z,101044.03
2022-11-02T05:53:03.636Z,101036.44
2022-11-02T05:55:31.300Z,101037.28
2022-11-02T05:57:57.611Z,101042.53
2022-11-02T06:00:26.848Z,101045.78
2022-11-02T06:02:57.811Z,101054.28
2022-11-02T06:05:25.021Z,101055.88
2022-11-02T06:07:51.322Z,101042.25
2022-11-02T06:10:18.257Z,101043.91
2022-11-02T06:12:45.399Z,101045.53
2022-11-02T06:15:11.809Z,101050.69
2022-11-02T06:17:39.181Z,101062.78
2022-11-02T06:20:06.294Z,101060.31
2022-11-02T06:22:38.224Z,101067.94
2022-11-02T06:25:04.657Z,101063.09
2022-11-02T06:27:30.920Z,101070.69
2022-11-02T06:29:57.314Z,101083.13
2022-11-02T06:32:23.984Z,101085.50
2022-11-02T06:34:50.463Z,101077.81
2022-11-02T06:37:16.691Z,101075.41
2022-11-02T06:39:42.966Z,101089.44
2022-11-02T06:42:09.261Z,101093.44
2022-11-02T06:44:35.533Z,101099.06
2022-11-02T06:47:01.878Z,101101.88
2022-11-02T06:49:28.370Z,101106.69
2022-11-02T06:51:54.796Z,101109.50
2022-11-02T06:54:21.217Z,101117.09
2022-11-02T06:56:47.530Z,101125.91
2022-11-02T06:59:13.816Z,101126.78
2022-11-02T07:01:40.408Z,101137.28
2022-11-02T07:04:06.802Z,101142.59
2022-11-02T07:06:33.070Z,101150.72
2022-11-02T07:08:59.331Z,101154.41
2022-11-02T07:11:25.603Z,101154.88
2022-11-02T07:13:51.892Z,101161.38
2022-11-02T07:16:18.189Z,101182.72
2022-11-02T07:18:44.494Z,101164.28
2022-11-02T07:21:11.851Z,101176.03
2022-11-02T07:23:38.531Z,101184.09
2022-11-02T07:26:07.008Z,101191.38
2022-11-02T07:28:33.460Z,101195.47
2022-11-02T07:30:59.675Z,101196.69
2022-11-02T07:33:25.920Z,101213.63
2022-11-02T07:35:52.232Z,101210.47
2022-11-02T07:38:18.693Z,101216.09
2022-11-02T07:40:48.488Z,101219.72
2022-11-02T07:43:14.724Z,101225.75
2022-11-02T07:45:41.146Z,101231.38
2022-11-02T07:48:07.459Z,101233.47
2022-11-02T07:50:33.823Z,101235.91
2022-11-02T07:53:00.607Z,101229.91
2022-11-02T07:55:28.146Z,101247.22
2022-11-02T07:57:55.510Z,101250.47
2022-11-02T08:00:21.982Z,101239.97
2022-11-02T08:02:48.494Z,101257.28
2022-11-02T08:05:14.976Z,101257.28
2022-11-02T08:07:42.799Z,101257.28
2022-11-02T08:10:09.507Z,101278.59
2022-11-02T08:12:35.718Z,101267.34
2022-11-02T08:15:07.203Z,101268.97
2022-11-02T08:17:33.857Z,101271.78
2022-11-02T08:20:00.172Z,101279.09
2022-11-02T08:22:26.408Z,101281.53
2022-11-02T08:24:52.672Z,101283.16
2022-11-02T08:27:18.935Z,101289.59
2022-11-02T08:29:45.247Z,101291.69
2022-11-02T08:32:12.544Z,101285.66
2022-11-02T08:34:38.854Z,101302.97
2022-11-02T08:37:06.650Z,101309.84
2022-11-02T08:39:35.210Z,101299.41
2022-11-02T08:42:01.617Z,101299.81
2022-11-02T08:44:27.911Z,101293.47
2022-11-02T08:49:27.145Z,101312.09
2022-11-02T08:51:53.439Z,101311.72
2022-11-02T08:54:19.678Z,101319.81
2022-11-02T08:56:46.115Z,101300.56
2022-11-02T08:59:12.660Z,101319.50
2022-11-02T09:01:39.291Z,101324.31
2022-11-02T09:04:05.651Z,101312.19
2022-11-02T09:06:31.919Z,101333.47
2022-11-02T09:09:00.627Z,101333.81
2022-11-02T09:11:26.952Z,101328.09
2022-11-02T09:13:56.912Z,101331.66
2022-11-02T09:16:23.720Z,101346.53
2022-11-02T09:18:50.173Z,101352.97
2022-11-02T09:21:16.407Z,101351.00
2022-11-02T09:23:42.940Z,101350.63
2022-11-02T09:26:09.356Z,101341.78
2022-11-02T09:28:35.671Z,101354.31
2022-11-02T09:31:06.019Z,101346.69
2022-11-02T09:33:36.151Z,101363.56
2022-11-02T09:36:04.255Z,101359.13
2022-11-02T09:38:31.007Z,101362.38
2022-11-02T09:41:12.622Z,101357.56
2022-11-02T09:43:45.615Z,101364.00
2022-11-02T09:46:31.965Z,101380.13
2022-11-02T09:51:33.062Z,101369.19
2022-11-02T09:54:06.099Z,101374.03
2022-11-02T09:56:33.377Z,101372.75
2022-11-02T09:59:01.900Z,101371.13
2022-11-02T10:01:42.239Z,101382.78
2022-11-02T10:04:27.470Z,101375.88
2022-11-02T10:07:02.840Z,101384.72
2022-11-02T10:09:37.387Z,101375.81
2022-11-02T10:12:14.420Z,101378.69
2022-11-02T10:14:53.042Z,101381.13
2022-11-02T10:17:24.578Z,101389.63
2022-11-02T10:19:59.257Z,101390.13
2022-11-02T10:22:28.657Z,101394.28
2022-11-02T10:24:57.214Z,101380.69
2022-11-02T10:27:27.258Z,101372.31
2022-11-02T10:30:14.232Z,101362.34
2022-11-02T10:32:41.134Z,101366.47
2022-11-02T10:35:45.858Z,101379.50
2022-11-02T10:38:19.879Z,101393.41
2022-11-02T10:41:04.073Z,101382.75
2022-11-02T10:43:52.075Z,101394.16
2022-11-02T10:46:24.493Z,101401.09
2022-11-02T10:49:09.568Z,101393.91
2022-11-02T10:51:35.844Z,101393.56
2022-11-02T10:54:02.179Z,101406.53
2022-11-02T10:56:32.691Z,101418.66
2022-11-02T10:58:58.961Z,101421.22
2022-11-02T11:01:26.147Z,101408.38
2022-11-02T11:04:03.520Z,101406.00
2022-11-02T11:06:40.179Z,101424.97
2022-11-02T11:09:25.980Z,101411.31
2022-11-02T11:11:56.903Z,101407.72
2022-11-02T11:20:07.446Z,101420.25
2022-11-02T11:22:38.054Z,101417.41
2022-11-02T11:25:13.142Z,101418.22
2022-11-02T11:27:56.517Z,101419.44
2022-11-02T11:30:46.619Z,101422.25
2022-11-02T11:33:16.902Z,101423.47
2022-11-02T11:35:47.929Z,101424.25
2022-11-02T11:38:19.456Z,101431.59
2022-11-02T11:40:49.119Z,101433.63
2022-11-02T11:43:17.585Z,101427.25
2022-11-02T11:46:06.431Z,101427.28
2022-11-02T11:48:36.015Z,101424.50
2022-11-02T11:51:03.750Z,101428.56
2022-11-02T11:53:30.778Z,101421.31
2022-11-02T11:55:59.932Z,101423.38
2022-11-02T11:58:30.276Z,101432.69
2022-11-02T12:01:11.969Z,101434.75
2022-11-02T12:04:00.356Z,101436.44
2022-11-02T12:06:46.409Z,101436.84
2022-11-02T12:09:19.067Z,101437.25
2022-11-02T12:11:54.199Z,101446.53
2022-11-02T12:14:30.051Z,101436.84
2022-11-02T12:17:15.244Z,101429.94
2022-11-02T12:19:52.958Z,101430.28
2022-11-02T12:22:29.377Z,101428.63
2022-11-02T12:25:01.886Z,101436.63
2022-11-02T12:27:47.520Z,101421.66
2022-11-02T12:30:42.981Z,101427.66
2022-11-02T12:33:15.248Z,101415.09
2022-11-02T12:35:53.089Z,101423.50
2022-11-02T12:38:33.612Z,101412.53
2022-11-02T12:41:04.582Z,101417.75
2022-11-02T12:43:33.757Z,101408.50
2022-11-02T12:46:02.079Z,101404.88
2022-11-02T12:48:31.332Z,101406.88
2022-11-02T12:51:00.644Z,101399.63
2022-11-02T12:53:45.929Z,101396.81
2022-11-02T12:56:16.726Z,101406.47
2022-11-02T12:58:44.344Z,101404.88
2022-11-02T13:01:14.839Z,101410.06
2022-11-02T13:03:49.212Z,101408.03
2022-11-02T13:06:19.245Z,101420.44
2022-11-02T13:08:45.671Z,101411.13
2022-11-02T13:11:23.230Z,101409.06
2022-11-02T13:13:55.640Z,101410.66
2022-11-02T13:16:28.136Z,101417.84
2022-11-02T13:18:55.043Z,101418.25
2022-11-02T13:21:30.783Z,101408.19
2022-11-02T13:23:58.350Z,101408.19
2022-11-02T13:26:27.682Z,101404.22
2022-11-02T13:28:56.014Z,101403.88
2022-11-02T13:31:29.452Z,101396.25
2022-11-02T13:34:00.163Z,101397.50
2022-11-02T13:36:26.672Z,101398.31
2022-11-02T13:38:55.811Z,101404.75
2022-11-02T13:41:33.277Z,101399.13
2022-11-02T13:44:18.405Z,101400.72
2022-11-02T13:46:44.634Z,101401.88
2022-11-02T13:49:14.029Z,101399.47
2022-11-02T13:51:49.024Z,101399.47
2022-11-02T13:54:19.741Z,101397.84
2022-11-02T13:56:47.607Z,101399.84
2022-11-02T13:59:22.270Z,101394.59
2022-11-02T14:01:49.282Z,101390.94
2022-11-02T14:04:16.063Z,101405.88
2022-11-02T14:06:54.726Z,101405.88
2022-11-02T14:09:23.671Z,101390.59
2022-11-02T14:11:49.969Z,101397.44
2022-11-02T14:14:18.763Z,101402.34
2022-11-02T14:16:48.111Z,101405.56
2022-11-02T14:19:19.555Z,101396.34
2022-11-02T14:21:49.963Z,101398.78
2022-11-02T14:24:34.577Z,101402.03
2022-11-02T14:27:24.036Z,101402.03
2022-11-02T14:29:51.670Z,101392.38
2022-11-02T14:32:20.981Z,101393.19
2022-11-02T14:35:05.223Z,101389.16
2022-11-02T14:37:31.634Z,101389.56
2022-11-02T14:40:04.782Z,101392.38
2022-11-02T14:42:30.984Z,101385.94
2022-11-02T14:45:15.496Z,101400.78
2022-11-02T14:47:42.011Z,101398.75
2022-11-02T14:50:20.001Z,101401.13
2022-11-02T14:52:55.667Z,101392.25
2022-11-02T14:55:23.716Z,101395.44
2022-11-02T14:57:54.036Z,101385.75
2022-11-02T15:00:21.024Z,101378.50
2022-11-02T15:02:47.899Z,101391.34
2022-11-02T15:05:23.564Z,101385.28
2022-11-02T15:07:55.453Z,101385.22
2022-11-02T15:10:21.784Z,101384.38
2022-11-02T15:12:48.414Z,101377.91
2022-11-02T15:15:37.014Z,101383.50
2022-11-02T15:18:23.597Z,101373.81
2022-11-02T15:21:10.163Z,101368.94
2022-11-02T15:23:55.274Z,101367.25
2022-11-02T15:26:42.838Z,101369.22
2022-11-02T15:29:36.792Z,101368.34
2022-11-02T15:32:04.889Z,101367.06
2022-11-02T15:34:40.329Z,101364.59
2022-11-02T15:37:07.404Z,101358.84
2022-11-02T15:39:33.920Z,101360.00
2022-11-02T15:42:05.327Z,101358.28
2022-11-02T15:44:37.873Z,101361.78
2022-11-02T15:47:14.697Z,101362.50
2022-11-02T15:49:59.494Z,101353.56
2022-11-02T15:52:29.103Z,101361.09
2022-11-02T15:55:02.432Z,101356.97
2022-11-02T15:58:00.861Z,101347.22
2022-11-02T16:00:33.012Z,101349.09
2022-11-02T16:03:01.415Z,101346.19
2022-11-02T16:05:29.628Z,101344.84
2022-11-02T16:08:10.382Z,101346.38
2022-11-02T16:10:36.990Z,101353.88
2022-11-02T16:13:14.108Z,101341.31
2022-11-02T16:15:42.508Z,101348.44
2022-11-02T16:18:29.480Z,101351.91
2022-11-02T16:21:02.540Z,101355.38
2022-11-02T16:23:30.333Z,101359.69
2022-11-02T16:25:57.605Z,101361.19
2022-11-02T16:28:25.453Z,101358.69
2022-11-02T16:31:15.774Z,101361.78
2022-11-02T16:33:44.681Z,101362.44
2022-11-02T16:36:12.234Z,101363.56
2022-11-02T16:38:38.977Z,101363.44
2022-11-02T16:41:10.331Z,101368.53
2022-11-02T16:43:37.885Z,101368.03
2022-11-02T16:46:07.021Z,101358.25
2022-11-02T16:48:33.607Z,101351.72
2022-11-02T16:51:01.237Z,101361.25
2022-11-02T16:53:31.676Z,101360.75
2022-11-02T16:56:18.195Z,101363.03
2022-11-02T16:58:49.700Z,101368.91
2022-11-02T17:01:20.958Z,101356.78
2022-11-02T17:03:47.671Z,101355.88
2022-11-02T17:06:14.267Z,101348.53
2022-11-02T17:08:41.520Z,101351.28
2022-11-02T17:11:13.382Z,101343.97
2022-11-02T17:13:44.573Z,101351.50
2022-11-02T17:16:11.471Z,101350.97
2022-11-02T17:18:39.062Z,101347.25
2022-11-02T17:21:19.822Z,101347.16
2022-11-02T17:23:47.187Z,101351.06
2022-11-02T17:26:22.389Z,101348.53
2022-11-02T17:28:49.736Z,101355.25
2022-11-02T17:31:17.523Z,101360.75
2022-11-02T17:33:44.001Z,101361.88
2022-11-02T17:36:10.235Z,101354.97
2022-11-02T17:38:36.724Z,101368.56
2022-11-02T17:41:23.437Z,101357.69
2022-11-02T17:43:49.723Z,101356.44
2022-11-02T17:46:16.132Z,101348.38
2022-11-02T17:48:42.442Z,101346.41
2022-11-02T17:51:10.798Z,101353.97
2022-11-02T17:53:37.145Z,101350.38
2022-11-02T17:56:03.469Z,101350.38
2022-11-02T17:58:30.139Z,101357.63
2022-11-02T18:00:56.557Z,101357.25
2022-11-02T18:03:25.554Z,101344.84
2022-11-02T18:05:59.890Z,101344.47
2022-11-02T18:08:26.673Z,101346.13
2022-11-02T18:10:53.213Z,101349.75
2022-11-02T18:13:20.528Z,101347.38
2022-11-02T18:15:47.226Z,101347.38
2022-11-02T18:18:13.542Z,101347.38
2022-11-02T18:20:42.092Z,101339.78
2022-11-02T18:23:14.451Z,101344.56
2022-11-02T18:25:40.723Z,101338.97
2022-11-02T18:28:07.300Z,101339.34
2022-11-02T18:30:33.804Z,101339.34
2022-11-02T18:33:00.575Z,101328.44
2022-11-02T18:35:27.294Z,101331.25
2022-11-02T18:37:53.762Z,101331.63
2022-11-02T18:40:20.592Z,101325.13
2022-11-02T18:42:47.286Z,101328.28
2022-11-02T18:45:14.723Z,101322.25
2022-11-02T18:47:41.903Z,101318.16
2022-11-02T18:50:09.722Z,101319.72
2022-11-02T18:52:36.143Z,101308.03
2022-11-02T18:55:03.492Z,101313.19
2022-11-02T18:57:30.451Z,101300.69
2022-11-02T18:59:56.979Z,101303.88
2022-11-02T19:02:23.504Z,101295.34
2022-11-02T19:04:49.847Z,101288.47
2022-11-02T19:07:35.566Z,101292.44
2022-11-02T19:10:04.037Z,101294.34
2022-11-02T19:12:31.039Z,101284.66
2022-11-02T19:14:57.790Z,101285.84
2022-11-02T19:17:25.039Z,101290.97
2022-11-02T19:19:51.712Z,101291.34
2022-11-02T19:22:19.169Z,101284.50
2022-11-02T19:24:45.438Z,101287.63
2022-11-02T19:27:13.162Z,101292.00
2022-11-02T19:29:39.399Z,101283.94
2022-11-02T19:32:05.700Z,101277.88
2022-11-02T19:34:33.713Z,101279.06
2022-11-02T19:37:01.223Z,101283.03
2022-11-02T19:39:27.591Z,101286.56
2022-11-02T19:41:54.270Z,101280.84
2022-11-02T19:44:21.240Z,101274.81
2022-11-02T19:46:47.533Z,101277.13
2022-11-02T19:49:13.987Z,101271.91
2022-11-02T19:51:40.668Z,101267.00
2022-11-02T19:54:06.936Z,101268.19
2022-11-02T19:56:34.686Z,101268.09
2022-11-02T19:59:01.900Z,101267.28
2022-11-02T20:01:29.335Z,101262.03
2022-11-02T20:03:56.900Z,101262.41
2022-11-02T20:06:24.474Z,101259.13
2022-11-02T20:08:54.923Z,101244.69
2022-11-02T20:11:21.709Z,101248.66
2022-11-02T20:13:48.403Z,101248.19
2022-11-02T20:16:15.971Z,101241.78
2022-11-02T20:18:43.096Z,101242.97
2022-11-02T20:21:12.324Z,101238.88
2022-11-02T20:23:40.132Z,101235.63
2022-11-02T20:26:08.126Z,101233.53
2022-11-02T20:28:39.242Z,101226.69
2022-11-02T20:31:07.944Z,101228.66
2022-11-02T20:33:35.086Z,101217.38
2022-11-02T20:36:01.350Z,101217.72
2022-11-02T20:38:27.605Z,101205.72
2022-11-02T20:40:54.512Z,101212.13
2022-11-02T20:43:20.936Z,101205.34
2022-11-02T20:45:47.183Z,101200.19
2022-11-02T20:48:13.579Z,101195.06
2022-11-02T20:50:39.929Z,101192.31
2022-11-02T20:53:06.712Z,101190.44
2022-11-02T20:55:33.398Z,101191.34
2022-11-02T20:57:59.668Z,101185.84
2022-11-02T21:00:26.076Z,101187.91
2022-11-02T21:02:52.360Z,101184.84
2022-11-02T21:05:18.714Z,101180.13
2022-11-02T21:07:45.048Z,101180.22
2022-11-02T21:10:11.334Z,101178.31
2022-11-02T21:12:56.489Z,101172.44
2022-11-02T21:15:22.810Z,101180.56
2022-11-02T21:17:49.055Z,101183.47
2022-11-02T21:23:05.975Z,101178.00
2022-11-02T21:25:33.133Z,101176.13
2022-11-02T21:27:59.899Z,101171.78
2022-11-02T21:30:26.942Z,101169.41
2022-11-02T21:32:53.566Z,101171.03
2022-11-02T21:35:20.593Z,101161.44
2022-11-02T21:37:49.579Z,101163.53
2022-11-02T21:40:17.029Z,101171.59
2022-11-02T21:42:43.368Z,101168.44
2022-11-02T21:45:09.693Z,101163.25
2022-11-02T21:47:36.113Z,101161.25
2022-11-02T21:50:04.286Z,101155.31
2022-11-02T21:52:30.589Z,101149.69
2022-11-02T21:54:56.936Z,101152.13
2022-11-02T21:57:23.185Z,101150.94
2022-11-02T21:59:49.514Z,101151.41
2022-11-02T22:02:17.505Z,101147.75
2022-11-02T22:04:44.149Z,101141.81
2022-11-02T22:07:10.836Z,101139.81
2022-11-02T22:09:37.058Z,101137.00
2022-11-02T22:12:22.150Z,101131.41
2022-11-02T22:14:48.660Z,101128.59
2022-11-02T22:17:22.180Z,101130.22
2022-11-02T22:20:01.383Z,101131.41
2022-11-02T22:22:27.618Z,101127.41
2022-11-02T22:24:53.903Z,101126.59
2022-11-02T22:27:20.126Z,101127.41
2022-11-02T22:29:47.063Z,101132.22
2022-11-02T22:32:14.511Z,101124.59
2022-11-02T22:34:43.657Z,101121.00
2022-11-02T22:37:28.317Z,101117.38
2022-11-02T22:39:54.631Z,101112.94
2022-11-02T22:42:20.885Z,101104.53
2022-11-02T22:44:47.534Z,101099.28
2022-11-02T22:47:14.049Z,101096.84
2022-11-02T22:49:40.323Z,101094.41
2022-11-02T22:52:07.152Z,101088.34
2022-11-02T22:54:33.381Z,101087.53
2022-11-02T22:56:59.610Z,101077.88
2022-11-02T22:59:25.842Z,101088.63
2022-11-02T23:01:52.240Z,101075.78
2022-11-02T23:04:18.627Z,101072.53
2022-11-02T23:06:45.896Z,101071.69
2022-11-02T23:09:12.227Z,101076.88
2022-11-02T23:11:38.897Z,101066.03
2022-11-02T23:14:10.892Z,101057.16
2022-11-02T23:16:38.455Z,101050.75
2022-11-02T23:19:31.662Z,101046.31
2022-11-02T23:22:22.647Z,101038.28
2022-11-02T23:25:11.063Z,101041.44
2022-11-02T23:27:58.579Z,101043.09
2022-11-02T23:30:44.178Z,101035.84
2022-11-02T23:33:10.519Z,101035.47
2022-11-02T23:35:55.671Z,101035.09
2022-11-02T23:38:22.202Z,101036.72
2022-11-02T23:40:48.418Z,101024.69
2022-11-02T23:43:14.895Z,101021.91
2022-11-02T23:45:42.654Z,101027.13
2022-11-02T23:48:09.345Z,101021.50
2022-11-02T23:50:54.320Z,101023.50
2022-11-02T23:53:41.951Z,101016.75
2022-11-02T23:56:32.764Z,101014.75
2022-11-02T23:59:08.263Z,101008.34
